Hondarribia Gipuzkoa

latitud = 43° 21' 38''N | longitud = 001° 47' 14''W
4 metros sobre el nivel del mar | datos mensuales

Fecha, hora, temperatura, viento dirección y velocidad, humedad y presión.

  • 23-04-2018 10:00:00 | 15.20°C | Nordeste |3.00 km/h | 93.00% | 1021.10 hPa
  • 23-04-2018 09:00:00 | 15.60°C | Norte |5.00 km/h | 90.00% | 1020.60 hPa
  • 23-04-2018 08:00:00 | 15.60°C | Norte |9.00 km/h | 91.00% | 1019.80 hPa
  • 23-04-2018 07:00:00 | 15.70°C | Este |3.00 km/h | 91.00% | 1019.20 hPa
  • 23-04-2018 06:00:00 | 15.40°C | Calma |0.00 km/h | 91.00% | 1018.90 hPa
  • 23-04-2018 05:00:00 | 15.00°C | Calma |0.00 km/h | 93.00% | 1019.10 hPa
  • 23-04-2018 04:00:00 | 14.50°C | Oeste |3.00 km/h | 93.00% | 1019.10 hPa
  • 23-04-2018 03:00:00 | 15.20°C | Sudoeste |3.00 km/h | 91.00% | 1018.80 hPa
  • 23-04-2018 02:00:00 | 15.70°C | Oeste |3.00 km/h | 91.00% | 1018.60 hPa
  • 23-04-2018 01:00:00 | 16.20°C | Sur |4.00 km/h | 92.00% | 1018.60 hPa
  • 23-04-2018 00:00:00 | 16.30°C | Norte |3.00 km/h | 90.00% | 1018.80 hPa
  • 22-04-2018 23:00:00 | 16.60°C | Oeste |5.00 km/h | 88.00% | 1019.10 hPa
  • 22-04-2018 22:00:00 | 17.40°C | Oeste |10.00 km/h | 81.00% | 1018.90 hPa
  • 22-04-2018 21:00:00 | 18.20°C | Noroeste |5.00 km/h | 73.00% | 1016.60 hPa
  • 22-04-2018 20:00:00 | 19.00°C | Norte |8.00 km/h | 68.00% | 1014.90 hPa
  • 22-04-2018 19:00:00 | 19.80°C | Norte |11.00 km/h | 62.00% | 1014.90 hPa
  • 22-04-2018 18:00:00 | 20.10°C | Norte |8.00 km/h | 60.00% | 1014.80 hPa
  • 22-04-2018 17:00:00 | 19.50°C | Nordeste |9.00 km/h | 64.00% | 1015.20 hPa
  • 22-04-2018 16:00:00 | 19.60°C | Nordeste |15.00 km/h | 65.00% | 1015.50 hPa
  • 22-04-2018 15:00:00 | 22.60°C | Noroeste |12.00 km/h | 52.00% | 1015.70 hPa
  • 22-04-2018 14:00:00 | 21.40°C | Noroeste |12.00 km/h | 55.00% | 1016.10 hPa
  • 22-04-2018 13:00:00 | 22.60°C | Oeste |22.00 km/h | 50.00% | 1016.10 hPa
  • 22-04-2018 12:00:00 | 22.80°C | Noroeste |14.00 km/h | 49.00% | 1016.10 hPa
  • 22-04-2018 11:00:00 | 21.10°C | Sur |7.00 km/h | 52.00% | 1016.10 hPa